Terminal Aerodrome Forecast
Issued by NWS

Home | Current Version | Previous Version | Text Only | Print | Product List | Glossary On
Versions: 1 2 3 4 5 6 7 8 9 10 11 12 13 14 15 16 17 18 19 20 21 22 23 24
000
FTUS41 KCTP 260328 AAA
TAFJST
TAF AMD
KJST 260328Z 2603/2624 06007KT P6SM SCT035 BKN070
     FM261000 08005KT P6SM OVC025
     FM261200 12006KT 4SM -DZ BR OVC007
     FM261500 17012G22KT 5SM BR OVC012=

USA.gov is the U.S. government's official web portal to all federal, state and local government web resources and services.